sensor_id;sensor_type;location;lat;lon;timestamp;pressure;altitude;pressure_sealevel;temperature;humidity
17383;BME280;8809;51.892;8.384;2022-12-18T00:00:47;101900.69;;;-9.41;100.00
17383;BME280;8809;51.892;8.384;2022-12-18T00:03:14;101888.28;;;-9.40;100.00
17383;BME280;8809;51.892;8.384;2022-12-18T00:05:47;101882.53;;;-9.39;100.00
17383;BME280;8809;51.892;8.384;2022-12-18T00:08:15;101882.75;;;-9.37;100.00
17383;BME280;8809;51.892;8.384;2022-12-18T00:10:43;101885.06;;;-9.39;100.00
17383;BME280;8809;51.892;8.384;2022-12-18T00:13:12;101902.03;;;-9.38;100.00
17383;BME280;8809;51.892;8.384;2022-12-18T00:15:39;101899.50;;;-9.38;100.00
17383;BME280;8809;51.892;8.384;2022-12-18T00:18:06;101902.03;;;-9.38;100.00
17383;BME280;8809;51.892;8.384;2022-12-18T00:20:36;101894.03;;;-9.41;100.00
17383;BME280;8809;51.892;8.384;2022-12-18T00:23:04;101900.50;;;-9.43;100.00
17383;BME280;8809;51.892;8.384;2022-12-18T00:25:32;101903.50;;;-9.45;100.00
17383;BME280;8809;51.892;8.384;2022-12-18T00:28:01;101897.53;;;-9.46;100.00
17383;BME280;8809;51.892;8.384;2022-12-18T00:30:28;101896.84;;;-9.45;100.00
17383;BME280;8809;51.892;8.384;2022-12-18T00:32:55;101904.63;;;-9.43;100.00
17383;BME280;8809;51.892;8.384;2022-12-18T00:35:22;101898.88;;;-9.42;100.00
17383;BME280;8809;51.892;8.384;2022-12-18T00:37:49;101904.13;;;-9.41;100.00
17383;BME280;8809;51.892;8.384;2022-12-18T00:40:16;101910.09;;;-9.40;100.00
17383;BME280;8809;51.892;8.384;2022-12-18T00:42:42;101906.66;;;-9.41;100.00
17383;BME280;8809;51.892;8.384;2022-12-18T00:45:26;101911.69;;;-9.41;100.00
17383;BME280;8809;51.892;8.384;2022-12-18T00:47:54;101899.75;;;-9.42;100.00
17383;BME280;8809;51.892;8.384;2022-12-18T00:50:21;101902.28;;;-9.42;100.00
17383;BME280;8809;51.892;8.384;2022-12-18T00:52:48;101902.81;;;-9.44;100.00
17383;BME280;8809;51.892;8.384;2022-12-18T00:55:15;101906.25;;;-9.44;100.00
17383;BME280;8809;51.892;8.384;2022-12-18T00:57:42;101895.91;;;-9.45;100.00
17383;BME280;8809;51.892;8.384;2022-12-18T01:00:11;101900.97;;;-9.45;100.00
17383;BME280;8809;51.892;8.384;2022-12-18T01:02:43;101897.53;;;-9.46;100.00
17383;BME280;8809;51.892;8.384;2022-12-18T01:05:11;101900.06;;;-9.46;100.00
17383;BME280;8809;51.892;8.384;2022-12-18T01:07:39;101887.66;;;-9.44;100.00
17383;BME280;8809;51.892;8.384;2022-12-18T01:10:13;101892.91;;;-9.43;100.00
17383;BME280;8809;51.892;8.384;2022-12-18T01:12:40;101890.41;;;-9.43;100.00
17383;BME280;8809;51.892;8.384;2022-12-18T01:15:07;101888.56;;;-9.44;100.00
17383;BME280;8809;51.892;8.384;2022-12-18T01:17:35;101877.75;;;-9.43;100.00
17383;BME280;8809;51.892;8.384;2022-12-18T01:20:04;101886.03;;;-9.44;100.00
17383;BME280;8809;51.892;8.384;2022-12-18T01:22:33;101886.44;;;-9.41;100.00
17383;BME280;8809;51.892;8.384;2022-12-18T01:25:00;101896.53;;;-9.41;100.00
17383;BME280;8809;51.892;8.384;2022-12-18T01:27:27;101889.19;;;-9.39;100.00
17383;BME280;8809;51.892;8.384;2022-12-18T01:29:54;101889.19;;;-9.39;100.00
17383;BME280;8809;51.892;8.384;2022-12-18T01:32:20;101891.94;;;-9.38;100.00
17383;BME280;8809;51.892;8.384;2022-12-18T01:34:47;101893.75;;;-9.37;100.00
17383;BME280;8809;51.892;8.384;2022-12-18T01:37:15;101898.34;;;-9.34;100.00
17383;BME280;8809;51.892;8.384;2022-12-18T01:39:42;101892.38;;;-9.34;100.00
17383;BME280;8809;51.892;8.384;2022-12-18T01:42:11;101894.91;;;-9.34;100.00
17383;BME280;8809;51.892;8.384;2022-12-18T01:44:58;101887.31;;;-9.34;100.00
17383;BME280;8809;51.892;8.384;2022-12-18T01:47:29;101897.41;;;-9.34;100.00
17383;BME280;8809;51.892;8.384;2022-12-18T01:49:58;101898.81;;;-9.37;100.00
17383;BME280;8809;51.892;8.384;2022-12-18T01:52:31;101891.22;;;-9.37;100.00
17383;BME280;8809;51.892;8.384;2022-12-18T01:54:59;101889.63;;;-9.36;100.00
17383;BME280;8809;51.892;8.384;2022-12-18T01:57:28;101889.63;;;-9.36;100.00
17383;BME280;8809;51.892;8.384;2022-12-18T01:59:59;101895.13;;;-9.33;100.00
17383;BME280;8809;51.892;8.384;2022-12-18T02:02:28;101896.72;;;-9.33;100.00
17383;BME280;8809;51.892;8.384;2022-12-18T02:04:56;101891.66;;;-9.33;100.00
17383;BME280;8809;51.892;8.384;2022-12-18T02:07:32;101900.16;;;-9.33;100.00
17383;BME280;8809;51.892;8.384;2022-12-18T02:10:06;101896.03;;;-9.32;100.00
17383;BME280;8809;51.892;8.384;2022-12-18T02:12:42;101895.28;;;-9.31;100.00
17383;BME280;8809;51.892;8.384;2022-12-18T02:15:15;101897.81;;;-9.31;100.00
17383;BME280;8809;51.892;8.384;2022-12-18T02:17:48;101903.09;;;-9.30;100.00
17383;BME280;8809;51.892;8.384;2022-12-18T02:20:20;101902.19;;;-9.30;100.00
17383;BME280;8809;51.892;8.384;2022-12-18T02:23:01;101898.97;;;-9.29;100.00
17383;BME280;8809;51.892;8.384;2022-12-18T02:25:43;101903.31;;;-9.28;100.00
17383;BME280;8809;51.892;8.384;2022-12-18T02:28:15;101903.31;;;-9.28;100.00
17383;BME280;8809;51.892;8.384;2022-12-18T02:30:47;101891.38;;;-9.29;100.00
17383;BME280;8809;51.892;8.384;2022-12-18T02:33:15;101881.97;;;-9.30;100.00
17383;BME280;8809;51.892;8.384;2022-12-18T02:35:45;101874.38;;;-9.30;100.00
17383;BME280;8809;51.892;8.384;2022-12-18T02:38:15;101889.31;;;-9.32;100.00
17383;BME280;8809;51.892;8.384;2022-12-18T02:40:44;101896.03;;;-9.32;100.00
17383;BME280;8809;51.892;8.384;2022-12-18T02:43:15;101886.63;;;-9.33;100.00
17383;BME280;8809;51.892;8.384;2022-12-18T02:45:50;101888.44;;;-9.32;100.00
17383;BME280;8809;51.892;8.384;2022-12-18T02:48:22;101888.22;;;-9.34;100.00
17383;BME280;8809;51.892;8.384;2022-12-18T02:50:57;101877.91;;;-9.35;100.00
17383;BME280;8809;51.892;8.384;2022-12-18T02:53:30;101887.31;;;-9.34;100.00
17383;BME280;8809;51.892;8.384;2022-12-18T02:56:05;101873.34;;;-9.38;100.00
17383;BME280;8809;51.892;8.384;2022-12-18T02:58:41;101879.31;;;-9.38;100.00
17383;BME280;8809;51.892;8.384;2022-12-18T03:01:16;101884.34;;;-9.38;100.00
17383;BME280;8809;51.892;8.384;2022-12-18T03:03:48;101883.66;;;-9.37;100.00
17383;BME280;8809;51.892;8.384;2022-12-18T03:06:21;101884.78;;;-9.34;100.00
17383;BME280;8809;51.892;8.384;2022-12-18T03:08:52;101881.75;;;-9.32;100.00
17383;BME280;8809;51.892;8.384;2022-12-18T03:11:24;101874.38;;;-9.30;100.00
17383;BME280;8809;51.892;8.384;2022-12-18T03:14:07;101882.19;;;-9.29;100.00
17383;BME280;8809;51.892;8.384;2022-12-18T03:16:36;101880.56;;;-9.28;100.00
17383;BME280;8809;51.892;8.384;2022-12-18T03:19:07;101874.81;;;-9.27;100.00
17383;BME280;8809;51.892;8.384;2022-12-18T03:21:39;101870.69;;;-9.27;100.00
17383;BME280;8809;51.892;8.384;2022-12-18T03:24:07;101875.53;;;-9.28;100.00
17383;BME280;8809;51.892;8.384;2022-12-18T03:26:37;101885.16;;;-9.26;100.00
17383;BME280;8809;51.892;8.384;2022-12-18T03:29:10;101884.94;;;-9.27;100.00
17383;BME280;8809;51.892;8.384;2022-12-18T03:31:40;101890.91;;;-9.27;100.00
17383;BME280;8809;51.892;8.384;2022-12-18T03:34:11;101893.66;;;-9.25;100.00
17383;BME280;8809;51.892;8.384;2022-12-18T03:36:39;101892.72;;;-9.26;100.00
17383;BME280;8809;51.892;8.384;2022-12-18T03:39:06;101905.56;;;-9.24;100.00
17383;BME280;8809;51.892;8.384;2022-12-18T03:41:40;101902.13;;;-9.25;100.00
17383;BME280;8809;51.892;8.384;2022-12-18T03:44:13;101891.34;;;-9.24;100.00
17383;BME280;8809;51.892;8.384;2022-12-18T03:46:46;101882.63;;;-9.26;100.00
17383;BME280;8809;51.892;8.384;2022-12-18T03:49:23;101882.63;;;-9.26;100.00
17383;BME280;8809;51.892;8.384;2022-12-18T03:51:57;101889.97;;;-9.27;100.00
17383;BME280;8809;51.892;8.384;2022-12-18T03:54:27;101879.88;;;-9.27;100.00
17383;BME280;8809;51.892;8.384;2022-12-18T03:56:58;101882.41;;;-9.27;100.00
17383;BME280;8809;51.892;8.384;2022-12-18T03:59:30;101876.66;;;-9.26;100.00
17383;BME280;8809;51.892;8.384;2022-12-18T04:01:59;101878.25;;;-9.27;100.00
17383;BME280;8809;51.892;8.384;2022-12-18T04:04:28;101880.78;;;-9.27;100.00
17383;BME280;8809;51.892;8.384;2022-12-18T04:06:57;101878.25;;;-9.27;100.00
17383;BME280;8809;51.892;8.384;2022-12-18T04:09:25;101875.75;;;-9.27;100.00
17383;BME280;8809;51.892;8.384;2022-12-18T04:11:52;101877.56;;;-9.26;100.00
17383;BME280;8809;51.892;8.384;2022-12-18T04:14:19;101878.47;;;-9.25;100.00
17383;BME280;8809;51.892;8.384;2022-12-18T04:16:47;101879.78;;;-9.22;100.00
17383;BME280;8809;51.892;8.384;2022-12-18T04:19:14;101883.47;;;-9.20;100.00
17383;BME280;8809;51.892;8.384;2022-12-18T04:21:42;101875.19;;;-9.19;100.00
17383;BME280;8809;51.892;8.384;2022-12-18T04:24:08;101891.47;;;-9.17;100.00
17383;BME280;8809;51.892;8.384;2022-12-18T04:26:35;101894.00;;;-9.17;100.00
17383;BME280;8809;51.892;8.384;2022-12-18T04:29:02;101888.94;;;-9.17;100.00
17383;BME280;8809;51.892;8.384;2022-12-18T04:31:29;101899.97;;;-9.16;100.00
17383;BME280;8809;51.892;8.384;2022-12-18T04:33:57;101888.25;;;-9.16;100.00
17383;BME280;8809;51.892;8.384;2022-12-18T04:36:27;101899.28;;;-9.15;100.00
17383;BME280;8809;51.892;8.384;2022-12-18T04:38:54;101895.84;;;-9.16;100.00
17383;BME280;8809;51.892;8.384;2022-12-18T04:41:21;101896.53;;;-9.17;100.00
17383;BME280;8809;51.892;8.384;2022-12-18T04:43:48;101892.38;;;-9.16;100.00
17383;BME280;8809;51.892;8.384;2022-12-18T04:46:14;101889.84;;;-9.16;100.00
17383;BME280;8809;51.892;8.384;2022-12-18T04:48:41;101894.22;;;-9.15;100.00
17383;BME280;8809;51.892;8.384;2022-12-18T04:51:09;101890.78;;;-9.16;100.00
17383;BME280;8809;51.892;8.384;2022-12-18T04:53:36;101886.63;;;-9.15;100.00
17383;BME280;8809;51.892;8.384;2022-12-18T04:56:05;101889.38;;;-9.14;100.00
17383;BME280;8809;51.892;8.384;2022-12-18T04:58:33;101890.28;;;-9.13;100.00
17383;BME280;8809;51.892;8.384;2022-12-18T05:01:00;101887.03;;;-9.12;100.00
17383;BME280;8809;51.892;8.384;2022-12-18T05:03:27;101890.69;;;-9.10;100.00
17383;BME280;8809;51.892;8.384;2022-12-18T05:05:54;101882.41;;;-9.09;100.00
17383;BME280;8809;51.892;8.384;2022-12-18T05:08:22;101881.03;;;-9.07;100.00
17383;BME280;8809;51.892;8.384;2022-12-18T05:10:49;101878.00;;;-9.05;100.00
17383;BME280;8809;51.892;8.384;2022-12-18T05:13:16;101881.44;;;-9.04;100.00
17383;BME280;8809;51.892;8.384;2022-12-18T05:15:43;101875.88;;;-9.02;100.00
17383;BME280;8809;51.892;8.384;2022-12-18T05:18:17;101874.50;;;-9.00;100.00
17383;BME280;8809;51.892;8.384;2022-12-18T05:20:44;101868.25;;;-8.96;100.00
17383;BME280;8809;51.892;8.384;2022-12-18T05:23:11;101866.13;;;-8.93;100.00
17383;BME280;8809;51.892;8.384;2022-12-18T05:25:39;101865.84;;;-8.89;100.00
17383;BME280;8809;51.892;8.384;2022-12-18T05:28:16;101868.09;;;-8.85;100.00
17383;BME280;8809;51.892;8.384;2022-12-18T05:30:47;101876.78;;;-8.83;100.00
17383;BME280;8809;51.892;8.384;2022-12-18T05:33:14;101878.63;;;-8.82;100.00
17383;BME280;8809;51.892;8.384;2022-12-18T05:35:41;101879.75;;;-8.80;100.00
17383;BME280;8809;51.892;8.384;2022-12-18T05:38:08;101874.69;;;-8.80;100.00
17383;BME280;8809;51.892;8.384;2022-12-18T05:40:34;101874.00;;;-8.79;100.00
17383;BME280;8809;51.892;8.384;2022-12-18T05:43:04;101875.59;;;-8.79;100.00
17383;BME280;8809;51.892;8.384;2022-12-18T05:45:31;101868.03;;;-8.79;100.00
17383;BME280;8809;51.892;8.384;2022-12-18T05:47:58;101870.75;;;-8.78;100.00
17383;BME280;8809;51.892;8.384;2022-12-18T05:50:25;101875.81;;;-8.78;100.00
17383;BME280;8809;51.892;8.384;2022-12-18T05:52:52;101883.41;;;-8.78;100.00
17383;BME280;8809;51.892;8.384;2022-12-18T05:55:19;101880.88;;;-8.78;100.00
17383;BME280;8809;51.892;8.384;2022-12-18T05:57:46;101873.28;;;-8.78;100.00
17383;BME280;8809;51.892;8.384;2022-12-18T06:00:16;101873.06;;;-8.79;100.00
17383;BME280;8809;51.892;8.384;2022-12-18T06:02:46;101867.09;;;-8.80;100.00
17383;BME280;8809;51.892;8.384;2022-12-18T06:05:13;101869.84;;;-8.78;100.00
17383;BME280;8809;51.892;8.384;2022-12-18T06:07:40;101873.28;;;-8.78;100.00
17383;BME280;8809;51.892;8.384;2022-12-18T06:10:09;101875.13;;;-8.77;100.00
17383;BME280;8809;51.892;8.384;2022-12-18T06:12:36;101871.88;;;-8.76;100.00
17383;BME280;8809;51.892;8.384;2022-12-18T06:15:03;101878.03;;;-8.74;100.00
17383;BME280;8809;51.892;8.384;2022-12-18T06:17:32;101878.25;;;-8.72;100.00
17383;BME280;8809;51.892;8.384;2022-12-18T06:19:59;101878.47;;;-8.71;100.00
17383;BME280;8809;51.892;8.384;2022-12-18T06:22:26;101883.97;;;-8.68;100.00
17383;BME280;8809;51.892;8.384;2022-12-18T06:24:53;101891.06;;;-8.65;100.00
17383;BME280;8809;51.892;8.384;2022-12-18T06:27:20;101888.72;;;-8.64;100.00
17383;BME280;8809;51.892;8.384;2022-12-18T06:29:48;101890.53;;;-8.63;100.00
17383;BME280;8809;51.892;8.384;2022-12-18T06:32:14;101892.38;;;-8.62;100.00
17383;BME280;8809;51.892;8.384;2022-12-18T06:34:43;101896.03;;;-8.59;100.00
17383;BME280;8809;51.892;8.384;2022-12-18T06:37:10;101896.25;;;-8.58;100.00
17383;BME280;8809;51.892;8.384;2022-12-18T06:39:37;101891.41;;;-8.56;100.00
17383;BME280;8809;51.892;8.384;2022-12-18T06:42:04;101895.75;;;-8.55;100.00
17383;BME280;8809;51.892;8.384;2022-12-18T06:44:31;101905.13;;;-8.54;100.00
17383;BME280;8809;51.892;8.384;2022-12-18T06:46:57;101911.13;;;-8.54;100.00
17383;BME280;8809;51.892;8.384;2022-12-18T06:49:24;101916.38;;;-8.52;100.00
17383;BME280;8809;51.892;8.384;2022-12-18T06:51:53;101910.63;;;-8.51;100.00
17383;BME280;8809;51.892;8.384;2022-12-18T06:54:20;101909.22;;;-8.49;100.00
17383;BME280;8809;51.892;8.384;2022-12-18T06:56:46;101912.88;;;-8.47;100.00
17383;BME280;8809;51.892;8.384;2022-12-18T06:59:13;101911.44;;;-8.45;100.00
17383;BME280;8809;51.892;8.384;2022-12-18T07:01:41;101912.38;;;-8.45;100.00
17383;BME280;8809;51.892;8.384;2022-12-18T07:04:07;101910.06;;;-8.43;100.00
17383;BME280;8809;51.892;8.384;2022-12-18T07:06:34;101900.84;;;-8.43;100.00
17383;BME280;8809;51.892;8.384;2022-12-18T07:09:02;101903.59;;;-8.41;100.00
17383;BME280;8809;51.892;8.384;2022-12-18T07:11:32;101901.06;;;-8.41;100.00
17383;BME280;8809;51.892;8.384;2022-12-18T07:13:59;101897.13;;;-8.39;100.00
17383;BME280;8809;51.892;8.384;2022-12-18T07:16:26;101897.34;;;-8.38;100.00
17383;BME280;8809;51.892;8.384;2022-12-18T07:18:54;101899.16;;;-8.37;100.00
17383;BME280;8809;51.892;8.384;2022-12-18T07:21:23;101900.25;;;-8.35;100.00
17383;BME280;8809;51.892;8.384;2022-12-18T07:23:50;101903.91;;;-8.33;100.00
17383;BME280;8809;51.892;8.384;2022-12-18T07:26:20;101903.59;;;-8.29;100.00
17383;BME280;8809;51.892;8.384;2022-12-18T07:28:47;101905.63;;;-8.26;100.00
17383;BME280;8809;51.892;8.384;2022-12-18T07:31:16;101898.44;;;-8.23;100.00
17383;BME280;8809;51.892;8.384;2022-12-18T07:33:44;101897.75;;;-8.22;100.00
17383;BME280;8809;51.892;8.384;2022-12-18T07:36:11;101904.63;;;-8.21;100.00
17383;BME280;8809;51.892;8.384;2022-12-18T07:38:38;101897.97;;;-8.20;100.00
17383;BME280;8809;51.892;8.384;2022-12-18T07:41:07;101898.16;;;-8.19;100.00
17383;BME280;8809;51.892;8.384;2022-12-18T07:43:36;101902.91;;;-8.15;100.00
17383;BME280;8809;51.892;8.384;2022-12-18T07:46:03;101908.41;;;-8.12;100.00
17383;BME280;8809;51.892;8.384;2022-12-18T07:48:30;101909.53;;;-8.10;100.00
17383;BME280;8809;51.892;8.384;2022-12-18T07:50:58;101909.91;;;-8.07;100.00
17383;BME280;8809;51.892;8.384;2022-12-18T07:53:25;101908.50;;;-8.05;100.00
17383;BME280;8809;51.892;8.384;2022-12-18T07:55:55;101912.16;;;-8.03;100.00
17383;BME280;8809;51.892;8.384;2022-12-18T07:58:22;101905.69;;;-8.01;100.00
17383;BME280;8809;51.892;8.384;2022-12-18T08:00:50;101901.06;;;-7.98;100.00
17383;BME280;8809;51.892;8.384;2022-12-18T08:03:18;101890.41;;;-7.95;100.00
17383;BME280;8809;51.892;8.384;2022-12-18T08:05:46;101884.84;;;-7.93;100.00
17383;BME280;8809;51.892;8.384;2022-12-18T08:08:12;101889.41;;;-7.90;100.00
17383;BME280;8809;51.892;8.384;2022-12-18T08:10:39;101885.66;;;-7.87;100.00
17383;BME280;8809;51.892;8.384;2022-12-18T08:13:06;101881.91;;;-7.83;100.00
17383;BME280;8809;51.892;8.384;2022-12-18T08:15:33;101878.19;;;-7.79;100.00
17383;BME280;8809;51.892;8.384;2022-12-18T08:18:01;101877.88;;;-7.75;100.00
17383;BME280;8809;51.892;8.384;2022-12-18T08:20:28;101870.19;;;-7.70;100.00
17383;BME280;8809;51.892;8.384;2022-12-18T08:22:55;101860.66;;;-7.65;100.00
17383;BME280;8809;51.892;8.384;2022-12-18T08:25:23;101865.81;;;-7.58;100.00
17383;BME280;8809;51.892;8.384;2022-12-18T08:27:50;101856.50;;;-7.52;100.00
17383;BME280;8809;51.892;8.384;2022-12-18T08:30:17;101854.06;;;-7.45;100.00
17383;BME280;8809;51.892;8.384;2022-12-18T08:32:44;101858.28;;;-7.38;100.00
17383;BME280;8809;51.892;8.384;2022-12-18T08:35:12;101869.47;;;-7.31;100.00
17383;BME280;8809;51.892;8.384;2022-12-18T08:37:39;101864.47;;;-7.24;100.00
17383;BME280;8809;51.892;8.384;2022-12-18T08:40:08;101867.28;;;-7.15;100.00
17383;BME280;8809;51.892;8.384;2022-12-18T08:42:35;101854.69;;;-7.08;100.00
17383;BME280;8809;51.892;8.384;2022-12-18T08:45:19;101855.88;;;-6.99;100.00
17383;BME280;8809;51.892;8.384;2022-12-18T08:47:46;101855.25;;;-6.91;100.00
17383;BME280;8809;51.892;8.384;2022-12-18T08:50:15;101850.44;;;-6.82;100.00
17383;BME280;8809;51.892;8.384;2022-12-18T08:52:42;101860.91;;;-6.73;100.00
17383;BME280;8809;51.892;8.384;2022-12-18T08:55:09;101856.09;;;-6.65;100.00
17383;BME280;8809;51.892;8.384;2022-12-18T08:57:36;101856.88;;;-6.59;100.00
17383;BME280;8809;51.892;8.384;2022-12-18T09:00:03;101870.94;;;-6.48;100.00
17383;BME280;8809;51.892;8.384;2022-12-18T09:02:31;101859.22;;;-6.41;100.00
17383;BME280;8809;51.892;8.384;2022-12-18T09:05:01;101851.34;;;-6.29;100.00
17383;BME280;8809;51.892;8.384;2022-12-18T09:07:29;101846.31;;;-6.22;100.00
17383;BME280;8809;51.892;8.384;2022-12-18T09:09:56;101844.22;;;-6.12;100.00
17383;BME280;8809;51.892;8.384;2022-12-18T09:12:23;101852.28;;;-6.02;100.00
17383;BME280;8809;51.892;8.384;2022-12-18T09:14:50;101853.25;;;-5.94;100.00
17383;BME280;8809;51.892;8.384;2022-12-18T09:17:17;101859.63;;;-5.84;100.00
17383;BME280;8809;51.892;8.384;2022-12-18T09:19:44;101859.69;;;-5.77;100.00
17383;BME280;8809;51.892;8.384;2022-12-18T09:22:11;101860.09;;;-5.67;100.00
17383;BME280;8809;51.892;8.384;2022-12-18T09:24:39;101869.63;;;-5.58;100.00
17383;BME280;8809;51.892;8.384;2022-12-18T09:27:06;101847.88;;;-5.49;100.00
17383;BME280;8809;51.892;8.384;2022-12-18T09:29:33;101860.09;;;-5.40;100.00
17383;BME280;8809;51.892;8.384;2022-12-18T09:31:59;101852.16;;;-5.29;100.00
17383;BME280;8809;51.892;8.384;2022-12-18T09:34:26;101859.09;;;-5.20;100.00
17383;BME280;8809;51.892;8.384;2022-12-18T09:36:53;101847.31;;;-5.13;100.00
17383;BME280;8809;51.892;8.384;2022-12-18T09:39:20;101851.91;;;-5.03;100.00
17383;BME280;8809;51.892;8.384;2022-12-18T09:41:51;101845.19;;;-4.96;100.00
17383;BME280;8809;51.892;8.384;2022-12-18T09:44:27;101848.13;;;-4.86;100.00
17383;BME280;8809;51.892;8.384;2022-12-18T09:47:10;101849.63;;;-4.73;100.00
17383;BME280;8809;51.892;8.384;2022-12-18T09:49:42;101854.00;;;-4.65;100.00
17383;BME280;8809;51.892;8.384;2022-12-18T09:52:14;101851.84;;;-4.55;100.00
17383;BME280;8809;51.892;8.384;2022-12-18T09:54:44;101851.13;;;-4.47;100.00
17383;BME280;8809;51.892;8.384;2022-12-18T09:57:17;101858.03;;;-4.39;100.00
17383;BME280;8809;51.892;8.384;2022-12-18T09:59:50;101858.94;;;-4.31;100.00
17383;BME280;8809;51.892;8.384;2022-12-18T10:02:20;101857.34;;;-4.24;100.00
17383;BME280;8809;51.892;8.384;2022-12-18T10:04:56;101856.41;;;-4.17;100.00
17383;BME280;8809;51.892;8.384;2022-12-18T10:07:46;101864.44;;;-4.07;100.00
17383;BME280;8809;51.892;8.384;2022-12-18T10:10:23;101853.69;;;-3.97;100.00
17383;BME280;8809;51.892;8.384;2022-12-18T10:13:01;101844.56;;;-3.88;100.00
17383;BME280;8809;51.892;8.384;2022-12-18T10:15:36;101841.28;;;-3.80;100.00
17383;BME280;8809;51.892;8.384;2022-12-18T10:18:17;101840.19;;;-3.68;100.00
17383;BME280;8809;51.892;8.384;2022-12-18T10:20:51;101833.78;;;-3.57;100.00
17383;BME280;8809;51.892;8.384;2022-12-18T10:23:23;101823.00;;;-3.48;100.00
17383;BME280;8809;51.892;8.384;2022-12-18T10:25:57;101812.41;;;-3.37;100.00
17383;BME280;8809;51.892;8.384;2022-12-18T10:28:30;101798.88;;;-3.28;100.00
17383;BME280;8809;51.892;8.384;2022-12-18T10:30:57;101784.63;;;-3.19;100.00
17383;BME280;8809;51.892;8.384;2022-12-18T10:33:28;101771.09;;;-3.11;100.00
17383;BME280;8809;51.892;8.384;2022-12-18T10:35:55;101776.88;;;-3.05;100.00
17383;BME280;8809;51.892;8.384;2022-12-18T10:38:24;101776.88;;;-2.98;100.00
17383;BME280;8809;51.892;8.384;2022-12-18T10:40:53;101786.66;;;-2.94;100.00
17383;BME280;8809;51.892;8.384;2022-12-18T10:43:23;101771.72;;;-2.91;100.00
17383;BME280;8809;51.892;8.384;2022-12-18T10:46:11;101783.31;;;-2.86;100.00
17383;BME280;8809;51.892;8.384;2022-12-18T10:48:52;101778.75;;;-2.81;100.00
17383;BME280;8809;51.892;8.384;2022-12-18T10:51:22;101779.25;;;-2.77;100.00
17383;BME280;8809;51.892;8.384;2022-12-18T10:53:55;101774.50;;;-2.74;100.00
17383;BME280;8809;51.892;8.384;2022-12-18T10:56:25;101772.47;;;-2.69;100.00
17383;BME280;8809;51.892;8.384;2022-12-18T10:58:58;101771.88;;;-2.67;100.00
17383;BME280;8809;51.892;8.384;2022-12-18T11:01:33;101753.28;;;-2.66;100.00
17383;BME280;8809;51.892;8.384;2022-12-18T11:04:16;101752.72;;;-2.63;100.00
17383;BME280;8809;51.892;8.384;2022-12-18T11:06:56;101743.00;;;-2.58;100.00
17383;BME280;8809;51.892;8.384;2022-12-18T11:09:24;101726.94;;;-2.57;100.00
17383;BME280;8809;51.892;8.384;2022-12-18T11:11:53;101717.81;;;-2.55;100.00
17383;BME280;8809;51.892;8.384;2022-12-18T11:14:22;101713.78;;;-2.53;100.00
17383;BME280;8809;51.892;8.384;2022-12-18T11:16:53;101713.34;;;-2.49;100.00
17383;BME280;8809;51.892;8.384;2022-12-18T11:19:26;101712.06;;;-2.46;100.00
17383;BME280;8809;51.892;8.384;2022-12-18T11:21:55;101692.88;;;-2.42;100.00
17383;BME280;8809;51.892;8.384;2022-12-18T11:24:29;101692.47;;;-2.38;100.00
17383;BME280;8809;51.892;8.384;2022-12-18T11:26:58;101695.34;;;-2.35;100.00
17383;BME280;8809;51.892;8.384;2022-12-18T11:29:33;101697.84;;;-2.28;100.00
17383;BME280;8809;51.892;8.384;2022-12-18T11:32:31;101701.47;;;-2.26;100.00
17383;BME280;8809;51.892;8.384;2022-12-18T11:35:04;101701.38;;;-2.19;100.00
17383;BME280;8809;51.892;8.384;2022-12-18T11:37:39;101692.59;;;-2.14;100.00
17383;BME280;8809;51.892;8.384;2022-12-18T11:40:15;101689.78;;;-2.08;100.00
17383;BME280;8809;51.892;8.384;2022-12-18T11:42:48;101694.66;;;-2.03;100.00
17383;BME280;8809;51.892;8.384;2022-12-18T11:45:28;101684.00;;;-1.99;100.00
17383;BME280;8809;51.892;8.384;2022-12-18T11:48:03;101679.22;;;-1.96;100.00
17383;BME280;8809;51.892;8.384;2022-12-18T11:50:40;101671.91;;;-1.93;100.00
17383;BME280;8809;51.892;8.384;2022-12-18T11:53:11;101678.22;;;-1.89;100.00
17383;BME280;8809;51.892;8.384;2022-12-18T11:55:43;101684.78;;;-1.84;100.00
17383;BME280;8809;51.892;8.384;2022-12-18T11:58:21;101668.06;;;-1.80;100.00
17383;BME280;8809;51.892;8.384;2022-12-18T12:01:01;101658.19;;;-1.77;100.00
17383;BME280;8809;51.892;8.384;2022-12-18T12:04:07;101642.44;;;-1.73;100.00
17383;BME280;8809;51.892;8.384;2022-12-18T12:06:45;101631.78;;;-1.69;100.00
17383;BME280;8809;51.892;8.384;2022-12-18T12:09:20;101616.00;;;-1.65;100.00
17383;BME280;8809;51.892;8.384;2022-12-18T12:12:00;101621.44;;;-1.62;100.00
17383;BME280;8809;51.892;8.384;2022-12-18T12:14:45;101623.25;;;-1.61;100.00
17383;BME280;8809;51.892;8.384;2022-12-18T12:17:18;101623.59;;;-1.58;100.00
17383;BME280;8809;51.892;8.384;2022-12-18T12:19:56;101622.84;;;-1.57;100.00
17383;BME280;8809;51.892;8.384;2022-12-18T12:22:33;101622.41;;;-1.53;100.00
17383;BME280;8809;51.892;8.384;2022-12-18T12:25:18;101613.06;;;-1.53;100.00
17383;BME280;8809;51.892;8.384;2022-12-18T12:27:55;101612.50;;;-1.50;100.00
17383;BME280;8809;51.892;8.384;2022-12-18T12:30:32;101613.56;;;-1.48;100.00
17383;BME280;8809;51.892;8.384;2022-12-18T12:33:15;101601.69;;;-1.47;100.00
17383;BME280;8809;51.892;8.384;2022-12-18T12:35:52;101608.63;;;-1.46;100.00
17383;BME280;8809;51.892;8.384;2022-12-18T12:38:25;101610.56;;;-1.44;100.00
17383;BME280;8809;51.892;8.384;2022-12-18T12:40:58;101618.56;;;-1.41;100.00
17383;BME280;8809;51.892;8.384;2022-12-18T12:43:33;101610.16;;;-1.40;100.00
17383;BME280;8809;51.892;8.384;2022-12-18T12:46:04;101625.84;;;-1.37;100.00
17383;BME280;8809;51.892;8.384;2022-12-18T12:48:36;101623.44;;;-1.35;100.00
17383;BME280;8809;51.892;8.384;2022-12-18T12:51:11;101629.78;;;-1.32;100.00
17383;BME280;8809;51.892;8.384;2022-12-18T12:53:40;101623.31;;;-1.28;100.00
17383;BME280;8809;51.892;8.384;2022-12-18T12:56:10;101616.56;;;-1.28;100.00
17383;BME280;8809;51.892;8.384;2022-12-18T12:58:45;101614.28;;;-1.25;100.00
17383;BME280;8809;51.892;8.384;2022-12-18T13:01:21;101604.22;;;-1.23;100.00
17383;BME280;8809;51.892;8.384;2022-12-18T13:04:01;101584.66;;;-1.23;100.00
17383;BME280;8809;51.892;8.384;2022-12-18T13:06:39;101578.78;;;-1.22;100.00